createdAt,value
2022-10-11T00:00:02.548Z,11.65
2022-10-11T00:00:37.142Z,11.18
2022-10-11T00:01:09.947Z,11.77
2022-10-11T00:01:24.477Z,11.50
2022-10-11T00:01:38.551Z,10.80
2022-10-11T00:01:51.167Z,10.88
2022-10-11T00:02:03.931Z,11.10
2022-10-11T00:02:16.998Z,10.88
2022-10-11T00:02:29.749Z,10.80
2022-10-11T00:02:43.362Z,10.73
2022-10-11T00:02:55.956Z,11.00
2022-10-11T00:03:08.569Z,11.45
2022-10-11T00:03:21.607Z,11.27
2022-10-11T00:03:34.260Z,11.23
2022-10-11T00:03:46.929Z,11.27
2022-10-11T00:03:59.567Z,11.43
2022-10-11T00:04:12.412Z,11.27
2022-10-11T00:04:26.124Z,11.00
2022-10-11T00:04:38.810Z,11.27
2022-10-11T00:04:51.583Z,11.68
2022-10-11T00:05:04.745Z,11.13
2022-10-11T00:05:17.753Z,11.20
2022-10-11T00:05:30.613Z,11.73
2022-10-11T00:05:44.166Z,12.10
2022-10-11T00:05:57.979Z,12.10
2022-10-11T00:06:10.591Z,12.00
2022-10-11T00:06:23.254Z,12.00
2022-10-11T00:06:37.938Z,12.20
2022-10-11T00:06:50.544Z,12.05
2022-10-11T00:07:03.197Z,11.80
2022-10-11T00:07:15.866Z,11.65
2022-10-11T00:07:29.902Z,11.38
2022-10-11T00:07:42.835Z,11.27
2022-10-11T00:07:55.833Z,11.82
2022-10-11T00:08:08.414Z,11.68
2022-10-11T00:08:21.144Z,11.75
2022-10-11T00:08:33.736Z,11.88
2022-10-11T00:08:47.338Z,11.93
2022-10-11T00:08:59.973Z,11.52
2022-10-11T00:09:12.687Z,11.50
2022-10-11T00:09:25.363Z,11.60
2022-10-11T00:09:38.122Z,11.70
2022-10-11T00:09:50.695Z,11.65
2022-10-11T00:10:05.554Z,11.48
2022-10-11T00:10:18.799Z,11.32
2022-10-11T00:10:31.549Z,11.27
2022-10-11T00:10:44.824Z,11.30
2022-10-11T00:10:58.853Z,11.45
2022-10-11T00:11:11.814Z,11.75
2022-10-11T00:11:24.425Z,11.98
2022-10-11T00:11:37.335Z,11.48
2022-10-11T00:11:50.951Z,11.35
2022-10-11T00:12:04.264Z,11.82
2022-10-11T00:12:16.858Z,11.88
2022-10-11T00:12:29.672Z,11.82
2022-10-11T00:12:42.500Z,11.85
2022-10-11T00:12:55.221Z,12.07
2022-10-11T00:13:08.700Z,12.00
2022-10-11T00:13:22.297Z,12.43
2022-10-11T00:13:35.552Z,12.40
2022-10-11T00:13:48.339Z,11.82
2022-10-11T00:14:00.964Z,11.95
2022-10-11T00:14:13.566Z,12.30
2022-10-11T00:14:28.052Z,12.02
2022-10-11T00:14:40.715Z,11.55
2022-10-11T00:14:53.330Z,11.63
2022-10-11T00:15:08.226Z,12.02
2022-10-11T00:15:22.126Z,12.27
2022-10-11T00:15:35.273Z,12.10
2022-10-11T00:15:49.569Z,11.60
2022-10-11T00:16:08.355Z,11.30
2022-10-11T00:16:22.474Z,11.48
2022-10-11T00:16:35.584Z,12.10
2022-10-11T00:16:49.619Z,12.10
2022-10-11T00:17:02.302Z,12.05
2022-10-11T00:17:14.951Z,12.07
2022-10-11T00:17:27.572Z,12.00
2022-10-11T00:17:40.390Z,12.13
2022-10-11T00:17:53.985Z,12.10
2022-10-11T00:18:07.238Z,12.18
2022-10-11T00:18:20.195Z,12.52
2022-10-11T00:18:32.809Z,12.35
2022-10-11T00:18:45.436Z,11.80
2022-10-11T00:18:58.057Z,11.60
2022-10-11T00:19:11.243Z,11.77
2022-10-11T00:19:24.902Z,11.75
2022-10-11T00:19:37.503Z,11.75
2022-10-11T00:19:50.410Z,11.90
2022-10-11T00:20:03.132Z,11.85
2022-10-11T00:20:16.081Z,11.93
2022-10-11T00:20:28.762Z,12.35
2022-10-11T00:20:42.383Z,12.20
2022-10-11T00:21:02.059Z,12.02
2022-10-11T00:21:16.113Z,11.90
2022-10-11T00:21:28.736Z,11.88
2022-10-11T00:21:41.406Z,12.27
2022-10-11T00:21:54.028Z,12.30
2022-10-11T00:22:07.620Z,12.15
2022-10-11T00:22:20.241Z,12.02
2022-10-11T00:22:33.005Z,11.80
2022-10-11T00:22:45.847Z,11.65
2022-10-11T00:22:58.446Z,12.05
2022-10-11T00:23:11.043Z,12.30
2022-10-11T00:23:23.645Z,12.20
2022-10-11T00:23:36.436Z,12.18
2022-10-11T00:23:50.616Z,12.40
2022-10-11T00:24:03.519Z,12.90
2022-10-11T00:24:16.906Z,12.85
2022-10-11T00:24:29.525Z,12.35
2022-10-11T00:24:42.188Z,12.10
2022-10-11T00:24:54.776Z,12.20
2022-10-11T00:25:09.398Z,12.38
2022-10-11T00:25:22.994Z,12.27
2022-10-11T00:25:35.657Z,12.30
2022-10-11T00:25:56.997Z,12.50
2022-10-11T00:26:10.950Z,12.32
2022-10-11T00:26:23.583Z,12.18
2022-10-11T00:26:36.160Z,12.18
2022-10-11T00:26:49.791Z,12.20
2022-10-11T00:27:02.400Z,12.52
2022-10-11T00:27:15.021Z,12.35
2022-10-11T00:27:27.667Z,12.43
2022-10-11T00:27:40.243Z,12.65
2022-10-11T00:27:53.031Z,12.45
2022-10-11T00:28:05.694Z,12.30
2022-10-11T00:28:19.359Z,12.32
2022-10-11T00:28:32.749Z,12.50
2022-10-11T00:28:45.412Z,12.63
2022-10-11T00:28:58.040Z,12.50
2022-10-11T00:29:11.882Z,12.35
2022-10-11T00:29:25.710Z,12.57
2022-10-11T00:29:38.542Z,12.60
2022-10-11T00:29:51.159Z,12.30
2022-10-11T00:30:04.902Z,12.10
2022-10-11T00:30:17.667Z,12.25
2022-10-11T00:30:30.323Z,12.32
2022-10-11T00:30:43.806Z,12.32
2022-10-11T00:30:56.499Z,12.35
2022-10-11T00:31:11.828Z,12.23
2022-10-11T00:31:24.590Z,11.68
2022-10-11T00:31:37.162Z,11.57
2022-10-11T00:31:51.196Z,11.52
2022-10-11T00:32:04.113Z,11.70
2022-10-11T00:32:17.842Z,11.93
2022-10-11T00:32:30.513Z,11.90
2022-10-11T00:32:43.140Z,11.75
2022-10-11T00:32:55.962Z,11.70
2022-10-11T00:33:08.552Z,11.70
2022-10-11T00:33:21.274Z,11.90
2022-10-11T00:33:34.010Z,12.18
2022-10-11T00:33:47.664Z,12.15
2022-10-11T00:34:00.290Z,12.10
2022-10-11T00:34:13.372Z,12.30
2022-10-11T00:34:25.996Z,12.13
2022-10-11T00:34:38.595Z,11.98
2022-10-11T00:34:51.212Z,12.02
2022-10-11T00:35:04.803Z,12.00
2022-10-11T00:35:18.645Z,12.02
2022-10-11T00:35:31.340Z,11.73
2022-10-11T00:35:44.113Z,11.55
2022-10-11T00:35:59.050Z,11.70
2022-10-11T00:36:14.402Z,11.98
2022-10-11T00:36:27.493Z,11.98
2022-10-11T00:36:40.088Z,11.90
2022-10-11T00:36:53.707Z,12.00
2022-10-11T00:37:06.329Z,12.07
2022-10-11T00:37:19.172Z,11.98
2022-10-11T00:37:31.810Z,11.88
2022-10-11T00:37:44.488Z,11.88
2022-10-11T00:37:57.465Z,12.15
2022-10-11T00:38:10.061Z,11.90
2022-10-11T00:38:22.686Z,11.63
2022-10-11T00:38:36.515Z,11.70
2022-10-11T00:38:49.428Z,11.70
2022-10-11T00:39:02.026Z,11.80
2022-10-11T00:39:14.718Z,11.73
2022-10-11T00:39:27.302Z,11.75
2022-10-11T00:39:39.935Z,11.80
2022-10-11T00:39:52.578Z,12.00
2022-10-11T00:40:08.382Z,12.18
2022-10-11T00:40:21.310Z,12.70
2022-10-11T00:40:34.001Z,12.45
2022-10-11T00:40:46.587Z,12.35
2022-10-11T00:40:59.648Z,12.23
2022-10-11T00:41:13.039Z,12.25
2022-10-11T00:41:25.733Z,12.00
2022-10-11T00:41:39.352Z,11.60
2022-10-11T00:41:52.038Z,11.77
2022-10-11T00:42:04.785Z,12.40
2022-10-11T00:42:17.819Z,12.30
2022-10-11T00:42:30.410Z,12.25
2022-10-11T00:42:43.310Z,12.32
2022-10-11T00:42:55.919Z,11.93
2022-10-11T00:43:17.835Z,11.95
2022-10-11T00:43:32.367Z,12.98
2022-10-11T00:43:45.364Z,12.70
2022-10-11T00:44:15.600Z,12.25
2022-10-11T00:44:31.141Z,12.70
2022-10-11T00:44:46.805Z,12.70
2022-10-11T00:45:32.447Z,12.50
2022-10-11T00:46:04.432Z,12.90
2022-10-11T00:46:31.983Z,13.35
2022-10-11T00:46:53.629Z,12.75
2022-10-11T00:47:15.514Z,13.02
2022-10-11T00:47:28.102Z,12.70
2022-10-11T00:47:42.553Z,12.82
2022-10-11T00:47:56.768Z,13.10
2022-10-11T00:48:15.770Z,12.80
2022-10-11T00:48:36.484Z,12.63
2022-10-11T00:48:53.897Z,12.85
2022-10-11T00:49:14.227Z,12.75
2022-10-11T00:49:35.223Z,12.73
2022-10-11T00:49:52.999Z,13.40
2022-10-11T00:50:10.901Z,13.10
2022-10-11T00:50:24.581Z,12.82
2022-10-11T00:50:37.669Z,12.68
2022-10-11T00:50:50.530Z,12.75
2022-10-11T00:51:08.067Z,13.25
2022-10-11T00:51:27.064Z,13.05
2022-10-11T00:51:45.561Z,13.50
2022-10-11T00:52:02.022Z,13.88
2022-10-11T00:52:19.767Z,14.07
2022-10-11T00:52:37.862Z,14.27
2022-10-11T00:52:56.400Z,14.52
2022-10-11T00:53:12.089Z,14.48
2022-10-11T00:53:26.185Z,14.30
2022-10-11T00:53:39.199Z,14.82
2022-10-11T00:53:52.966Z,14.90
2022-10-11T00:54:08.329Z,14.60
2022-10-11T00:54:25.597Z,14.57
2022-10-11T00:54:41.668Z,14.07
2022-10-11T00:54:54.400Z,14.10
2022-10-11T00:55:10.640Z,14.35
2022-10-11T00:55:28.321Z,14.75
2022-10-11T00:55:48.060Z,15.25
2022-10-11T00:56:04.859Z,14.55
2022-10-11T00:56:23.750Z,14.65
2022-10-11T00:56:39.507Z,14.68
2022-10-11T00:56:56.952Z,14.70
2022-10-11T00:57:15.518Z,14.90
2022-10-11T00:57:31.654Z,14.52
2022-10-11T00:57:48.512Z,14.30
2022-10-11T00:58:01.529Z,14.18
2022-10-11T00:58:14.890Z,14.10
2022-10-11T00:58:27.706Z,14.27
2022-10-11T00:58:41.448Z,14.40
2022-10-11T00:58:56.293Z,14.15
2022-10-11T00:59:14.002Z,14.38
2022-10-11T00:59:29.673Z,14.48
2022-10-11T00:59:45.435Z,14.23
2022-10-11T00:59:58.803Z,14.38
2022-10-11T01:00:13.990Z,14.13
2022-10-11T01:00:26.665Z,13.88
2022-10-11T01:00:40.362Z,13.60
2022-10-11T01:00:54.219Z,13.73
2022-10-11T01:01:07.815Z,13.98
2022-10-11T01:01:20.574Z,14.02
2022-10-11T01:01:33.375Z,13.77
2022-10-11T01:01:46.101Z,13.15
2022-10-11T01:01:58.794Z,13.18
2022-10-11T01:02:15.516Z,13.70
2022-10-11T01:02:30.306Z,13.90
2022-10-11T01:02:43.640Z,13.50
2022-10-11T01:02:57.017Z,13.52
2022-10-11T01:03:09.650Z,13.75
2022-10-11T01:03:25.704Z,13.50
2022-10-11T01:03:40.389Z,13.55
2022-10-11T01:03:54.311Z,13.60
2022-10-11T01:04:06.976Z,13.75
2022-10-11T01:04:19.596Z,13.52
2022-10-11T01:04:32.964Z,13.48
2022-10-11T01:04:45.753Z,13.35
2022-10-11T01:05:25.109Z,13.63
2022-10-11T01:05:33.080Z,13.45
2022-10-11T01:05:46.266Z,12.98
2022-10-11T01:05:58.968Z,12.98
2022-10-11T01:06:11.775Z,12.70
2022-10-11T01:06:24.584Z,12.80
2022-10-11T01:06:37.332Z,13.13
2022-10-11T01:06:52.309Z,13.38
2022-10-11T01:07:04.947Z,13.30
2022-10-11T01:07:19.250Z,13.32
2022-10-11T01:07:33.458Z,13.07
2022-10-11T01:07:47.865Z,12.70
2022-10-11T01:08:00.887Z,12.73
2022-10-11T01:08:13.876Z,12.55
2022-10-11T01:08:28.919Z,12.27
2022-10-11T01:08:41.912Z,11.75
2022-10-11T01:08:54.863Z,12.10
2022-10-11T01:09:07.934Z,12.60
2022-10-11T01:09:22.475Z,12.90
2022-10-11T01:09:35.358Z,13.10
2022-10-11T01:09:48.029Z,12.77
2022-10-11T01:10:01.031Z,12.95
2022-10-11T01:10:15.290Z,13.20
2022-10-11T01:10:28.378Z,13.38
2022-10-11T01:10:41.045Z,13.20
2022-10-11T01:10:53.844Z,13.25
2022-10-11T01:11:07.196Z,13.23
2022-10-11T01:11:23.363Z,13.07
2022-10-11T01:11:38.269Z,12.73
2022-10-11T01:11:54.876Z,12.77
2022-10-11T01:12:15.062Z,12.57
2022-10-11T01:12:31.017Z,12.40
2022-10-11T01:12:54.782Z,12.40
2022-10-11T01:13:16.831Z,12.23
2022-10-11T01:13:42.573Z,12.23
2022-10-11T01:14:20.084Z,12.20
2022-10-11T01:14:54.425Z,11.77
2022-10-11T01:15:17.157Z,12.98
2022-10-11T01:15:33.822Z,12.30
2022-10-11T01:15:55.600Z,12.45
2022-10-11T01:16:14.394Z,12.68
2022-10-11T01:16:35.130Z,12.70
2022-10-11T01:16:55.326Z,12.50
2022-10-11T01:17:19.872Z,12.25
2022-10-11T01:17:40.377Z,12.38
2022-10-11T01:18:00.672Z,12.43
2022-10-11T01:18:19.815Z,12.10
2022-10-11T01:18:41.054Z,12.38
2022-10-11T01:19:05.898Z,12.50
2022-10-11T01:19:38.625Z,12.60
2022-10-11T01:20:30.647Z,12.57
2022-10-11T01:20:59.655Z,12.25
2022-10-11T01:21:22.019Z,12.50
2022-10-11T01:21:42.663Z,12.52
2022-10-11T01:22:08.503Z,12.35
2022-10-11T01:22:45.548Z,12.80
2022-10-11T01:23:37.748Z,12.85
2022-10-11T01:24:08.789Z,12.73
2022-10-11T01:25:02.594Z,12.70
2022-10-11T01:25:27.448Z,13.27
2022-10-11T01:25:58.695Z,12.90
2022-10-11T01:26:37.148Z,12.55
2022-10-11T01:27:18.190Z,12.63
2022-10-11T01:27:55.556Z,13.52
2022-10-11T01:28:23.099Z,13.23
2022-10-11T01:28:47.953Z,12.65
2022-10-11T01:29:11.719Z,13.00
2022-10-11T01:29:41.569Z,12.85
2022-10-11T01:30:05.103Z,13.00
2022-10-11T01:30:26.004Z,13.07
2022-10-11T01:30:39.248Z,13.18
2022-10-11T01:30:53.301Z,13.15
2022-10-11T01:31:14.018Z,13.13
2022-10-11T01:31:32.214Z,13.32
2022-10-11T01:31:53.446Z,13.40
2022-10-11T01:32:15.247Z,13.10
2022-10-11T01:32:33.723Z,13.63
2022-10-11T01:32:50.934Z,13.38
2022-10-11T01:33:15.505Z,13.25
2022-10-11T01:33:36.915Z,12.88
2022-10-11T01:33:54.869Z,13.05
2022-10-11T01:34:14.532Z,13.70
2022-10-11T01:34:32.630Z,13.88
2022-10-11T01:34:52.610Z,14.20
2022-10-11T01:35:13.128Z,13.80
2022-10-11T01:35:31.222Z,13.70
2022-10-11T01:35:49.259Z,13.65
2022-10-11T01:36:09.366Z,14.10
2022-10-11T01:36:28.840Z,14.60
2022-10-11T01:36:50.296Z,14.10
2022-10-11T01:37:09.465Z,14.32
2022-10-11T01:37:29.538Z,14.38
2022-10-11T01:37:46.485Z,14.38
2022-10-11T01:38:03.258Z,14.50
2022-10-11T01:38:22.491Z,14.82
2022-10-11T01:38:42.194Z,14.65
2022-10-11T01:38:59.589Z,14.95
2022-10-11T01:39:16.644Z,14.48
2022-10-11T01:39:34.134Z,14.68
2022-10-11T01:39:52.174Z,14.25
2022-10-11T01:40:10.912Z,14.77
2022-10-11T01:40:27.054Z,15.23
2022-10-11T01:40:44.438Z,14.57
2022-10-11T01:41:00.195Z,14.63
2022-10-11T01:41:16.751Z,14.73
2022-10-11T01:41:35.692Z,14.57
2022-10-11T01:41:52.658Z,14.75
2022-10-11T01:42:09.870Z,15.25
2022-10-11T01:42:23.991Z,15.27
2022-10-11T01:42:38.942Z,15.20
2022-10-11T01:42:54.876Z,14.90
2022-10-11T01:43:09.443Z,14.77
2022-10-11T01:43:24.683Z,15.88
2022-10-11T01:43:39.705Z,16.77
2022-10-11T01:43:57.148Z,15.93
2022-10-11T01:44:12.619Z,15.65
2022-10-11T01:44:26.756Z,16.13
2022-10-11T01:44:45.008Z,15.98
2022-10-11T01:44:59.376Z,15.85
2022-10-11T01:45:16.232Z,16.30
2022-10-11T01:45:31.306Z,15.82
2022-10-11T01:45:48.768Z,15.25
2022-10-11T01:46:03.372Z,15.60
2022-10-11T01:46:19.197Z,15.77
2022-10-11T01:46:33.257Z,15.85
2022-10-11T01:46:45.860Z,15.48
2022-10-11T01:46:58.434Z,15.50
2022-10-11T01:47:11.043Z,15.60
2022-10-11T01:47:26.096Z,15.43
2022-10-11T01:47:39.162Z,15.45
2022-10-11T01:48:02.383Z,15.50
2022-10-11T01:48:14.998Z,15.23
2022-10-11T01:48:27.711Z,15.40
2022-10-11T01:48:48.218Z,15.20
2022-10-11T01:49:02.572Z,15.02
2022-10-11T01:49:16.204Z,15.10
2022-10-11T01:49:28.822Z,15.07
2022-10-11T01:49:42.009Z,15.10
2022-10-11T01:49:56.664Z,15.30
2022-10-11T01:50:35.205Z,15.05
2022-10-11T01:50:51.232Z,15.43
2022-10-11T01:51:04.130Z,15.48
2022-10-11T01:51:19.705Z,15.90
2022-10-11T01:51:37.305Z,15.32
2022-10-11T01:51:52.843Z,15.15
2022-10-11T01:52:07.236Z,15.57
2022-10-11T01:52:21.489Z,15.30
2022-10-11T01:52:39.668Z,14.93
2022-10-11T01:52:52.536Z,15.07
2022-10-11T01:53:20.232Z,15.27
2022-10-11T01:54:00.188Z,15.55
2022-10-11T01:54:27.720Z,16.45
2022-10-11T01:55:09.156Z,15.68
2022-10-11T01:55:28.725Z,15.65
2022-10-11T01:55:49.938Z,15.70
2022-10-11T01:56:16.788Z,15.82
2022-10-11T01:56:42.602Z,16.00
2022-10-11T01:57:30.362Z,16.52
2022-10-11T01:57:55.191Z,16.58
2022-10-11T01:58:19.495Z,16.15
2022-10-11T01:58:45.630Z,16.70
2022-10-11T01:59:12.479Z,16.23
2022-10-11T01:59:41.234Z,16.63
2022-10-11T02:00:03.441Z,17.48
2022-10-11T02:00:19.437Z,17.30
2022-10-11T02:00:42.160Z,17.00
2022-10-11T02:01:01.861Z,16.85
2022-10-11T02:01:24.131Z,17.25
2022-10-11T02:01:49.266Z,17.35
2022-10-11T02:02:15.301Z,17.88
2022-10-11T02:02:40.964Z,17.60
2022-10-11T02:03:08.767Z,18.25
2022-10-11T02:03:32.070Z,18.67
2022-10-11T02:03:50.547Z,18.02
2022-10-11T02:04:09.666Z,18.15
2022-10-11T02:04:31.016Z,17.83
2022-10-11T02:04:47.583Z,18.08
2022-10-11T02:05:08.868Z,18.55
2022-10-11T02:05:29.666Z,18.67
2022-10-11T02:05:48.556Z,19.13
2022-10-11T02:06:09.743Z,19.73
2022-10-11T02:06:33.163Z,19.75
2022-10-11T02:06:53.450Z,19.38
2022-10-11T02:07:12.477Z,18.80
2022-10-11T02:07:33.629Z,19.80
2022-10-11T02:07:54.213Z,20.73
2022-10-11T02:08:16.097Z,20.25
2022-10-11T02:08:38.676Z,19.88
2022-10-11T02:08:57.810Z,20.23
2022-10-11T02:09:18.732Z,19.55
2022-10-11T02:09:36.470Z,20.45
2022-10-11T02:09:58.519Z,20.40
2022-10-11T02:10:17.030Z,20.58
2022-10-11T02:10:35.097Z,20.65
2022-10-11T02:10:54.107Z,21.05
2022-10-11T02:11:13.798Z,21.17
2022-10-11T02:11:29.982Z,21.23
2022-10-11T02:11:43.146Z,20.85
2022-10-11T02:12:01.236Z,20.33
2022-10-11T02:12:24.636Z,20.00
2022-10-11T02:12:43.250Z,20.25
2022-10-11T02:13:02.491Z,21.13
2022-10-11T02:13:22.310Z,21.38
2022-10-11T02:13:39.904Z,22.10
2022-10-11T02:13:58.746Z,21.85
2022-10-11T02:14:15.621Z,21.50
2022-10-11T02:14:34.603Z,21.70
2022-10-11T02:14:51.804Z,21.40
2022-10-11T02:15:09.361Z,21.23
2022-10-11T02:15:23.952Z,21.42
2022-10-11T02:15:41.270Z,21.50
2022-10-11T02:15:56.236Z,21.73
2022-10-11T02:16:12.917Z,21.92
2022-10-11T02:16:37.148Z,21.80
2022-10-11T02:16:55.892Z,21.13
2022-10-11T02:17:12.249Z,21.65
2022-10-11T02:17:31.044Z,22.20
2022-10-11T02:17:47.334Z,21.92
2022-10-11T02:18:03.686Z,21.55
2022-10-11T02:18:21.886Z,21.33
2022-10-11T02:18:38.163Z,20.98
2022-10-11T02:18:54.645Z,21.38
2022-10-11T02:19:09.218Z,22.30
2022-10-11T02:19:26.480Z,21.95
2022-10-11T02:19:42.843Z,21.17
2022-10-11T02:20:00.138Z,21.20
2022-10-11T02:20:18.493Z,21.40
2022-10-11T02:20:34.558Z,20.90
2022-10-11T02:20:48.943Z,20.45
2022-10-11T02:21:05.980Z,20.83
2022-10-11T02:21:20.898Z,21.35
2022-10-11T02:21:37.294Z,21.55
2022-10-11T02:21:54.686Z,21.42
2022-10-11T02:22:13.612Z,21.67
2022-10-11T02:22:30.668Z,21.65
2022-10-11T02:22:46.732Z,21.35
2022-10-11T02:23:06.086Z,21.15
2022-10-11T02:23:23.744Z,21.23
2022-10-11T02:23:41.360Z,20.75
2022-10-11T02:23:58.596Z,19.83
2022-10-11T02:24:16.863Z,21.35
2022-10-11T02:24:33.774Z,20.90
2022-10-11T02:24:51.332Z,20.40
2022-10-11T02:25:09.191Z,20.73
2022-10-11T02:25:26.576Z,20.58
2022-10-11T02:25:39.286Z,19.95
2022-10-11T02:25:52.708Z,19.70
2022-10-11T02:26:07.145Z,20.02
2022-10-11T02:26:23.097Z,20.00
2022-10-11T02:26:40.216Z,20.58
2022-10-11T02:26:55.836Z,20.50
2022-10-11T02:27:10.694Z,19.95
2022-10-11T02:27:26.770Z,19.98
2022-10-11T02:27:42.640Z,20.08
2022-10-11T02:27:59.582Z,20.10
2022-10-11T02:28:16.523Z,19.95
2022-10-11T02:28:33.957Z,19.40
2022-10-11T02:28:48.239Z,19.30
2022-10-11T02:29:05.180Z,19.75
2022-10-11T02:29:18.457Z,19.58
2022-10-11T02:29:34.502Z,19.48
2022-10-11T02:29:51.714Z,19.83
2022-10-11T02:30:07.487Z,20.10
2022-10-11T02:30:20.281Z,19.42
2022-10-11T02:30:34.988Z,19.23
2022-10-11T02:30:50.487Z,19.00
2022-10-11T02:31:06.890Z,19.20
2022-10-11T02:31:22.558Z,19.45
2022-10-11T02:31:36.588Z,20.00
2022-10-11T02:31:51.570Z,20.05
2022-10-11T02:32:05.858Z,19.52
2022-10-11T02:32:20.346Z,19.33
2022-10-11T02:32:33.766Z,18.88
2022-10-11T02:32:48.919Z,18.85
2022-10-11T02:33:06.549Z,19.38
2022-10-11T02:33:26.193Z,19.10
2022-10-11T02:33:43.811Z,19.55
2022-10-11T02:34:00.464Z,19.38
2022-10-11T02:34:16.790Z,18.73
2022-10-11T02:34:33.654Z,18.92
2022-10-11T02:34:52.701Z,19.05
2022-10-11T02:35:06.783Z,18.73
2022-10-11T02:35:20.222Z,18.52
2022-10-11T02:35:40.930Z,18.55
2022-10-11T02:35:59.100Z,18.75
2022-10-11T02:36:16.050Z,18.33
2022-10-11T02:36:41.320Z,18.55
2022-10-11T02:37:02.842Z,18.95
2022-10-11T02:37:21.260Z,18.75
2022-10-11T02:37:42.168Z,18.88
2022-10-11T02:38:02.642Z,19.25
2022-10-11T02:38:22.016Z,18.60
2022-10-11T02:38:40.337Z,18.95
2022-10-11T02:38:59.348Z,18.83
2022-10-11T02:39:17.416Z,18.73
2022-10-11T02:39:37.104Z,18.50
2022-10-11T02:39:57.963Z,18.65
2022-10-11T02:40:16.074Z,19.42
2022-10-11T02:40:32.446Z,19.13
2022-10-11T02:40:48.043Z,18.63
2022-10-11T02:41:11.010Z,18.73
2022-10-11T02:41:27.844Z,18.15
2022-10-11T02:41:43.232Z,18.65
2022-10-11T02:42:00.046Z,18.42
2022-10-11T02:42:17.543Z,18.38
2022-10-11T02:42:36.481Z,18.95
2022-10-11T02:42:54.776Z,18.92
2022-10-11T02:43:13.453Z,18.38
2022-10-11T02:43:33.345Z,18.52
2022-10-11T02:43:50.714Z,18.55
2022-10-11T02:44:08.281Z,17.58
2022-10-11T02:44:29.946Z,17.92
2022-10-11T02:44:46.954Z,18.90
2022-10-11T02:45:05.086Z,19.00
2022-10-11T02:45:22.101Z,18.08
2022-10-11T02:45:39.242Z,18.00
2022-10-11T02:45:56.686Z,18.45
2022-10-11T02:46:10.452Z,18.58
2022-10-11T02:46:25.391Z,18.63
2022-10-11T02:46:39.746Z,18.63
2022-10-11T02:46:52.675Z,18.20
2022-10-11T02:47:06.020Z,18.10
2022-10-11T02:47:19.048Z,18.55
2022-10-11T02:47:32.728Z,18.77
2022-10-11T02:47:47.089Z,18.67
2022-10-11T02:48:01.750Z,18.58
2022-10-11T02:48:15.800Z,19.20
2022-10-11T02:48:29.457Z,19.27
2022-10-11T02:48:42.652Z,18.98
2022-10-11T02:48:55.344Z,18.88
2022-10-11T02:49:08.903Z,18.65
2022-10-11T02:49:22.950Z,18.08
2022-10-11T02:49:36.256Z,18.23
2022-10-11T02:49:48.874Z,18.25
2022-10-11T02:50:02.134Z,18.25
2022-10-11T02:50:16.122Z,18.70
2022-10-11T02:50:29.094Z,19.02
2022-10-11T02:50:42.877Z,18.70
2022-10-11T02:50:57.648Z,18.30
2022-10-11T02:51:13.613Z,18.40
2022-10-11T02:51:27.162Z,18.75
2022-10-11T02:51:39.830Z,19.25
2022-10-11T02:51:54.872Z,19.40
2022-10-11T02:52:07.658Z,18.85
2022-10-11T02:52:21.410Z,18.75
2022-10-11T02:52:34.010Z,19.05
2022-10-11T02:52:46.618Z,18.83
2022-10-11T02:52:59.279Z,18.67
2022-10-11T02:53:12.236Z,18.42
2022-10-11T02:53:26.640Z,18.73
2022-10-11T02:53:39.293Z,18.63
2022-10-11T02:53:52.947Z,18.15
2022-10-11T02:54:06.134Z,17.52
2022-10-11T02:54:18.752Z,18.23
2022-10-11T02:54:31.547Z,19.15
2022-10-11T02:54:44.166Z,19.00
2022-10-11T02:54:56.802Z,18.75
2022-10-11T02:55:10.787Z,18.33
2022-10-11T02:55:24.427Z,18.20
2022-10-11T02:55:37.393Z,18.65
2022-10-11T02:55:52.022Z,18.20
2022-10-11T02:56:05.229Z,18.15
2022-10-11T02:56:18.058Z,18.35
2022-10-11T02:56:30.659Z,18.55
2022-10-11T02:56:44.314Z,18.77
2022-10-11T02:56:57.022Z,18.98
2022-10-11T02:57:09.639Z,18.33
2022-10-11T02:57:22.298Z,18.05
2022-10-11T02:57:34.908Z,18.48
2022-10-11T02:57:47.583Z,18.23
2022-10-11T02:58:00.524Z,18.00
2022-10-11T02:58:14.391Z,18.05
2022-10-11T02:58:27.028Z,17.73
2022-10-11T02:58:39.739Z,18.05
2022-10-11T02:58:52.371Z,18.35
2022-10-11T02:59:04.924Z,18.42
2022-10-11T02:59:17.568Z,18.13
2022-10-11T02:59:30.170Z,17.88
2022-10-11T02:59:42.756Z,18.20
2022-10-11T02:59:56.467Z,18.85
2022-10-11T03:00:10.213Z,18.67
2022-10-11T03:00:22.856Z,18.45
2022-10-11T03:00:35.509Z,18.35
2022-10-11T03:00:48.205Z,17.83
2022-10-11T03:01:02.252Z,17.83
2022-10-11T03:01:16.491Z,17.73
2022-10-11T03:01:29.187Z,17.25
2022-10-11T03:01:42.141Z,17.60
2022-10-11T03:01:54.878Z,18.15
2022-10-11T03:02:07.678Z,18.50
2022-10-11T03:02:20.350Z,18.38
2022-10-11T03:02:33.057Z,18.15
2022-10-11T03:02:45.708Z,18.20
2022-10-11T03:02:59.298Z,18.05
2022-10-11T03:03:12.253Z,18.00
2022-10-11T03:03:25.046Z,18.10
2022-10-11T03:03:37.616Z,17.85
2022-10-11T03:03:50.731Z,17.73
2022-10-11T03:04:03.372Z,17.55
2022-10-11T03:04:16.038Z,17.50
2022-10-11T03:04:29.642Z,17.88
2022-10-11T03:04:42.274Z,17.48
2022-10-11T03:04:54.850Z,17.08
2022-10-11T03:05:08.166Z,17.55
2022-10-11T03:05:21.118Z,17.77
2022-10-11T03:05:40.375Z,17.25
2022-10-11T03:05:58.415Z,17.30
2022-10-11T03:06:11.063Z,16.92
2022-10-11T03:06:25.163Z,17.08
2022-10-11T03:06:37.834Z,17.63
2022-10-11T03:06:50.445Z,17.40
2022-10-11T03:07:03.071Z,17.23
2022-10-11T03:07:15.684Z,17.45
2022-10-11T03:07:28.294Z,17.35
2022-10-11T03:07:40.920Z,17.42
2022-10-11T03:07:53.548Z,17.88
2022-10-11T03:08:07.433Z,17.90
2022-10-11T03:08:20.034Z,17.70
2022-10-11T03:08:33.100Z,17.50
2022-10-11T03:08:45.707Z,17.77
2022-10-11T03:08:58.316Z,17.70
2022-10-11T03:09:10.942Z,17.40
2022-10-11T03:09:23.575Z,17.00
2022-10-11T03:09:37.197Z,17.05
2022-10-11T03:09:49.786Z,17.73
2022-10-11T03:10:02.880Z,17.67
2022-10-11T03:10:15.552Z,17.50
2022-10-11T03:10:28.298Z,17.38
2022-10-11T03:10:41.388Z,17.38
2022-10-11T03:10:54.074Z,17.45
2022-10-11T03:11:06.938Z,17.35
2022-10-11T03:11:19.550Z,17.58
2022-10-11T03:11:32.187Z,17.63
2022-10-11T03:11:45.789Z,17.40
2022-10-11T03:11:58.402Z,17.38
2022-10-11T03:12:11.108Z,17.40
2022-10-11T03:12:23.778Z,17.23
2022-10-11T03:12:36.430Z,17.13
2022-10-11T03:12:49.026Z,17.23
2022-10-11T03:13:01.840Z,17.13
2022-10-11T03:13:18.352Z,16.88
2022-10-11T03:13:31.216Z,17.15
2022-10-11T03:13:44.043Z,17.33
2022-10-11T03:13:56.644Z,17.23
2022-10-11T03:14:09.259Z,17.08
2022-10-11T03:14:21.970Z,16.80
2022-10-11T03:14:34.574Z,16.70
2022-10-11T03:14:48.169Z,16.73
2022-10-11T03:15:00.835Z,16.83
2022-10-11T03:15:13.934Z,16.88
2022-10-11T03:15:26.626Z,17.20
2022-10-11T03:15:39.286Z,17.50
2022-10-11T03:16:02.782Z,17.00
2022-10-11T03:16:18.676Z,17.25
2022-10-11T03:16:31.275Z,17.20
2022-10-11T03:16:43.917Z,16.95
2022-10-11T03:17:00.756Z,16.92
2022-10-11T03:17:36.222Z,17.58
2022-10-11T03:17:50.555Z,16.77
2022-10-11T03:18:03.267Z,16.75
2022-10-11T03:18:16.031Z,16.35
2022-10-11T03:18:28.730Z,16.88
2022-10-11T03:18:41.362Z,17.08
2022-10-11T03:18:54.169Z,17.48
2022-10-11T03:19:06.852Z,17.17
2022-10-11T03:19:20.490Z,17.42
2022-10-11T03:19:33.699Z,17.27
2022-10-11T03:19:46.510Z,16.88
2022-10-11T03:19:59.211Z,16.48
2022-10-11T03:20:12.219Z,16.73
2022-10-11T03:20:25.283Z,16.92
2022-10-11T03:20:37.902Z,16.83
2022-10-11T03:20:50.482Z,16.73
2022-10-11T03:21:04.082Z,16.67
2022-10-11T03:21:16.766Z,16.70
2022-10-11T03:21:29.430Z,16.33
2022-10-11T03:21:42.472Z,16.52
2022-10-11T03:21:55.070Z,16.70
2022-10-11T03:22:07.691Z,16.65
2022-10-11T03:22:20.309Z,16.55
2022-10-11T03:22:32.917Z,16.33
2022-10-11T03:22:46.554Z,16.38
2022-10-11T03:22:59.240Z,16.95
2022-10-11T03:23:12.651Z,17.38
2022-10-11T03:23:25.383Z,17.02
2022-10-11T03:23:38.105Z,16.80
2022-10-11T03:23:50.762Z,16.63
2022-10-11T03:24:04.122Z,16.45
2022-10-11T03:24:17.726Z,16.48
2022-10-11T03:24:30.314Z,17.00
2022-10-11T03:24:42.968Z,17.38
2022-10-11T03:24:59.676Z,17.13
2022-10-11T03:25:15.381Z,16.85
2022-10-11T03:25:28.499Z,16.50
2022-10-11T03:25:41.118Z,16.48
2022-10-11T03:25:54.742Z,16.63
2022-10-11T03:26:07.846Z,16.75
2022-10-11T03:26:20.978Z,16.85
2022-10-11T03:26:33.596Z,16.63
2022-10-11T03:26:46.198Z,16.20
2022-10-11T03:26:58.862Z,16.02